createdAt,value
2016-08-10T00:00:24.429Z,0
2016-08-10T00:01:25.081Z,0
2016-08-10T00:02:25.055Z,0
2016-08-10T00:03:24.323Z,0
2016-08-10T00:04:24.285Z,0
2016-08-10T00:05:24.257Z,0
2016-08-10T00:06:24.914Z,0
2016-08-10T00:08:23.457Z,0
2016-08-10T00:09:24.827Z,0
2016-08-10T00:10:24.084Z,0
2016-08-10T00:11:24.048Z,0
2016-08-10T00:12:24.716Z,0
2016-08-10T00:13:23.289Z,0
2016-08-10T00:14:24.647Z,0
2016-08-10T00:15:24.628Z,0
2016-08-10T00:16:24.582Z,0
2016-08-10T00:17:24.548Z,0
2016-08-10T00:18:23.821Z,0
2016-08-10T00:19:24.478Z,0
2016-08-10T00:20:24.465Z,0
2016-08-10T00:21:24.421Z,0
2016-08-10T00:23:23.653Z,0
2016-08-10T00:24:23.618Z,0
2016-08-10T00:25:24.290Z,0
2016-08-10T00:26:24.248Z,0
2016-08-10T00:27:24.216Z,0
2016-08-10T00:28:23.485Z,0
2016-08-10T00:29:23.468Z,0
2016-08-10T00:30:23.417Z,0
2016-08-10T00:31:23.390Z,0
2016-08-10T00:32:24.043Z,0
2016-08-10T00:33:23.317Z,0
2016-08-10T00:34:23.983Z,0
2016-08-10T00:35:23.254Z,0
2016-08-10T00:36:23.252Z,0
2016-08-10T00:37:23.186Z,0
2016-08-10T00:38:23.851Z,0
2016-08-10T00:39:23.815Z,0
2016-08-10T00:40:23.788Z,0
2016-08-10T00:41:23.745Z,0
2016-08-10T00:42:23.717Z,0
2016-08-10T00:43:23.683Z,0
2016-08-10T00:44:22.950Z,0
2016-08-10T00:45:23.613Z,0
2016-08-10T00:46:23.580Z,0
2016-08-10T00:47:23.556Z,0
2016-08-10T00:48:22.125Z,0
2016-08-10T00:49:22.783Z,0
2016-08-10T00:50:22.755Z,0
2016-08-10T00:51:22.719Z,0
2016-08-10T00:52:22.701Z,0
2016-08-10T00:53:22.676Z,0
2016-08-10T00:54:22.629Z,0
2016-08-10T00:55:23.289Z,0
2016-08-10T00:56:23.252Z,0
2016-08-10T00:57:22.527Z,0
2016-08-10T00:58:21.793Z,0
2016-08-10T00:59:22.459Z,0
2016-08-10T01:00:23.116Z,0
2016-08-10T01:01:23.084Z,0
2016-08-10T01:02:22.364Z,0
2016-08-10T01:03:22.325Z,0
2016-08-10T01:04:22.294Z,0
2016-08-10T01:05:22.950Z,0
2016-08-10T01:06:22.925Z,0
2016-08-10T01:07:22.185Z,0
2016-08-10T01:08:22.851Z,0
2016-08-10T01:09:22.834Z,0
2016-08-10T01:10:21.390Z,0
2016-08-10T01:11:22.750Z,0
2016-08-10T01:12:22.022Z,0
2016-08-10T01:13:22.686Z,0
2016-08-10T01:14:21.956Z,0
2016-08-10T01:15:21.929Z,0
2016-08-10T01:16:21.190Z,0
2016-08-10T01:17:22.552Z,0
2016-08-10T01:18:21.821Z,0
2016-08-10T01:19:21.790Z,0
2016-08-10T01:20:22.457Z,0
2016-08-10T01:21:21.727Z,0
2016-08-10T01:22:21.689Z,0
2016-08-10T01:23:20.985Z,0
2016-08-10T01:24:22.317Z,0
2016-08-10T01:25:21.588Z,0
2016-08-10T01:26:21.556Z,0
2016-08-10T01:27:21.520Z,0
2016-08-10T01:28:21.489Z,0
2016-08-10T01:29:20.757Z,0
2016-08-10T01:30:21.621Z,0
2016-08-10T01:31:22.085Z,0
2016-08-10T01:32:21.367Z,0
2016-08-10T01:33:21.322Z,0
2016-08-10T01:34:21.283Z,0
2016-08-10T01:35:21.257Z,0
2016-08-10T01:36:21.925Z,0
2016-08-10T01:37:21.187Z,0
2016-08-10T01:38:21.155Z,0
2016-08-10T01:39:21.134Z,0
2016-08-10T01:40:21.091Z,0
2016-08-10T01:41:21.776Z,0
2016-08-10T01:42:21.045Z,0
2016-08-10T01:43:21.687Z,0
2016-08-10T01:44:21.660Z,0
2016-08-10T01:45:20.924Z,0
2016-08-10T01:46:20.894Z,0
2016-08-10T01:47:21.567Z,0
2016-08-10T01:48:21.520Z,0
2016-08-10T01:49:20.093Z,0
2016-08-10T01:50:20.766Z,0
2016-08-10T01:51:19.359Z,0
2016-08-10T01:52:20.693Z,0
2016-08-10T01:53:20.669Z,0
2016-08-10T01:54:19.931Z,0
2016-08-10T01:55:21.307Z,0
2016-08-10T01:56:21.267Z,0
2016-08-10T01:57:19.829Z,0
2016-08-10T01:58:20.508Z,0
2016-08-10T01:59:20.475Z,0
2016-08-10T02:00:21.127Z,0
2016-08-10T02:01:21.091Z,0
2016-08-10T02:02:21.059Z,0
2016-08-10T02:03:20.324Z,0
2016-08-10T02:04:20.296Z,0
2016-08-10T02:05:18.870Z,0
2016-08-10T02:06:20.231Z,0
2016-08-10T02:07:20.197Z,0
2016-08-10T02:08:20.175Z,0
2016-08-10T02:09:20.137Z,0
2016-08-10T02:10:20.103Z,0
2016-08-10T02:11:20.776Z,0
2016-08-10T02:12:20.748Z,0
2016-08-10T02:13:19.994Z,0
2016-08-10T02:14:19.972Z,0
2016-08-10T02:15:19.933Z,0
2016-08-10T02:16:20.610Z,0
2016-08-10T02:17:20.576Z,0
2016-08-10T02:18:20.531Z,0
2016-08-10T02:19:19.100Z,0
2016-08-10T02:20:20.463Z,0
2016-08-10T02:21:19.738Z,0
2016-08-10T02:22:19.717Z,0
2016-08-10T02:23:18.973Z,0
2016-08-10T02:24:19.631Z,0
2016-08-10T02:25:18.911Z,0
2016-08-10T02:26:19.571Z,0
2016-08-10T02:27:20.237Z,0
2016-08-10T02:28:19.499Z,0
2016-08-10T02:29:20.165Z,0
2016-08-10T02:30:18.790Z,0
2016-08-10T02:31:19.405Z,0
2016-08-10T02:32:20.065Z,0
2016-08-10T02:33:20.035Z,0
2016-08-10T02:34:19.313Z,0
2016-08-10T02:35:19.984Z,0
2016-08-10T02:36:19.942Z,0
2016-08-10T02:37:19.907Z,0
2016-08-10T02:39:19.150Z,0
2016-08-10T02:40:19.805Z,0
2016-08-10T02:41:19.073Z,0
2016-08-10T02:42:19.744Z,0
2016-08-10T02:43:19.708Z,0
2016-08-10T02:44:18.985Z,0
2016-08-10T02:45:19.638Z,0
2016-08-10T02:46:19.607Z,0
2016-08-10T02:47:19.578Z,0
2016-08-10T02:48:19.542Z,0
2016-08-10T02:49:18.114Z,0
2016-08-10T02:50:18.776Z,0
2016-08-10T02:51:19.458Z,0
2016-08-10T02:52:19.413Z,0
2016-08-10T02:54:18.645Z,0
2016-08-10T02:55:19.316Z,0
2016-08-10T02:56:19.271Z,0
2016-08-10T02:57:19.255Z,0
2016-08-10T02:58:19.215Z,0
2016-08-10T02:59:17.785Z,0
2016-08-10T03:00:19.141Z,0
2016-08-10T03:01:18.426Z,0
2016-08-10T03:02:19.086Z,0
2016-08-10T03:03:19.048Z,0
2016-08-10T03:04:19.013Z,0
2016-08-10T03:05:18.984Z,0
2016-08-10T03:06:18.948Z,0
2016-08-10T03:07:17.519Z,0
2016-08-10T03:09:18.865Z,0
2016-08-10T03:10:18.815Z,0
2016-08-10T03:11:18.785Z,0
2016-08-10T03:12:17.355Z,0
2016-08-10T03:13:18.714Z,0
2016-08-10T03:14:17.992Z,0
2016-08-10T03:15:18.648Z,0
2016-08-10T03:16:17.915Z,0
2016-08-10T03:17:17.885Z,0
2016-08-10T03:18:18.554Z,0
2016-08-10T03:19:18.515Z,0
2016-08-10T03:20:17.796Z,0
2016-08-10T03:21:18.452Z,0
2016-08-10T03:22:17.727Z,0
2016-08-10T03:23:18.381Z,0
2016-08-10T03:24:18.349Z,0
2016-08-10T03:25:17.627Z,0
2016-08-10T03:26:18.288Z,0
2016-08-10T03:27:18.254Z,0
2016-08-10T03:28:18.215Z,0
2016-08-10T03:29:18.183Z,0
2016-08-10T03:30:18.651Z,0
2016-08-10T03:31:17.426Z,0
2016-08-10T03:32:18.089Z,0
2016-08-10T03:33:18.053Z,0
2016-08-10T03:34:18.023Z,0
2016-08-10T03:35:17.986Z,0
2016-08-10T03:36:17.957Z,0
2016-08-10T03:37:17.226Z,0
2016-08-10T03:38:17.206Z,0
2016-08-10T03:39:17.856Z,0
2016-08-10T03:40:17.825Z,0
2016-08-10T03:41:17.094Z,0
2016-08-10T03:42:17.757Z,0
2016-08-10T03:43:17.041Z,0
2016-08-10T03:44:16.995Z,0
2016-08-10T03:45:16.969Z,4
2016-08-10T03:46:16.932Z,4
2016-08-10T03:47:17.595Z,4
2016-08-10T03:48:17.557Z,4
2016-08-10T03:49:16.830Z,4
2016-08-10T03:50:17.496Z,4
2016-08-10T03:51:17.460Z,8
2016-08-10T03:52:17.424Z,8
2016-08-10T03:53:17.410Z,12
2016-08-10T03:54:16.664Z,12
2016-08-10T03:55:17.328Z,16
2016-08-10T03:56:16.591Z,20
2016-08-10T03:57:17.260Z,20
2016-08-10T03:58:17.228Z,24
2016-08-10T03:59:15.799Z,32
2016-08-10T04:00:17.171Z,36
2016-08-10T04:01:17.131Z,44
2016-08-10T04:02:17.103Z,48
2016-08-10T04:03:17.067Z,52
2016-08-10T04:04:16.334Z,56
2016-08-10T04:05:17.016Z,64
2016-08-10T04:06:16.963Z,72
2016-08-10T04:07:16.235Z,76
2016-08-10T04:08:16.912Z,84
2016-08-10T04:09:16.865Z,88
2016-08-10T04:10:15.440Z,84
2016-08-10T04:11:16.796Z,88
2016-08-10T04:12:16.765Z,100
2016-08-10T04:13:15.342Z,120
2016-08-10T04:14:16.003Z,136
2016-08-10T04:15:15.967Z,152
2016-08-10T04:16:16.640Z,160
2016-08-10T04:17:15.902Z,168
2016-08-10T04:18:16.566Z,180
2016-08-10T04:19:16.531Z,184
2016-08-10T04:20:15.106Z,192
2016-08-10T04:21:16.471Z,212
2016-08-10T04:22:16.444Z,232
2016-08-10T04:23:15.717Z,236
2016-08-10T04:24:16.378Z,240
2016-08-10T04:25:16.335Z,252
2016-08-10T04:26:16.299Z,264
2016-08-10T04:27:15.574Z,276
2016-08-10T04:28:16.236Z,296
2016-08-10T04:29:16.211Z,320
2016-08-10T04:30:15.478Z,332
2016-08-10T04:31:16.131Z,332
2016-08-10T04:32:14.023Z,324
2016-08-10T04:33:16.066Z,308
2016-08-10T04:34:15.348Z,316
2016-08-10T04:35:15.306Z,336
2016-08-10T04:36:15.969Z,380
2016-08-10T04:37:15.934Z,484
2016-08-10T04:38:15.215Z,604
2016-08-10T04:39:15.167Z,680
2016-08-10T04:40:15.833Z,704
2016-08-10T04:41:15.805Z,628
2016-08-10T04:42:15.070Z,568
2016-08-10T04:43:15.037Z,576
2016-08-10T04:44:15.022Z,588
2016-08-10T04:45:14.280Z,604
2016-08-10T04:46:14.944Z,624
2016-08-10T04:47:15.617Z,660
2016-08-10T04:48:15.570Z,708
2016-08-10T04:49:15.536Z,780
2016-08-10T04:50:15.504Z,880
2016-08-10T04:51:14.077Z,964
2016-08-10T04:52:14.741Z,1004
2016-08-10T04:53:15.416Z,1048
2016-08-10T04:54:15.373Z,1100
2016-08-10T04:55:14.647Z,1156
2016-08-10T04:56:15.306Z,1176
2016-08-10T04:57:15.273Z,1152
2016-08-10T04:58:15.239Z,1116
2016-08-10T04:59:14.520Z,1104
2016-08-10T05:00:15.173Z,1116
2016-08-10T05:01:14.441Z,1168
2016-08-10T05:02:15.111Z,1300
2016-08-10T05:03:15.074Z,1496
2016-08-10T05:04:14.356Z,1768
2016-08-10T05:05:14.322Z,2076
2016-08-10T05:06:13.603Z,2264
2016-08-10T05:07:14.953Z,2324
2016-08-10T05:08:14.914Z,2488
2016-08-10T05:09:14.173Z,2488
2016-08-10T05:10:14.848Z,2276
2016-08-10T05:11:14.114Z,2012
2016-08-10T05:12:14.777Z,1752
2016-08-10T05:13:14.751Z,1572
2016-08-10T05:14:14.712Z,1488
2016-08-10T05:15:14.682Z,1472
2016-08-10T05:16:13.255Z,1492
2016-08-10T05:17:14.617Z,1496
2016-08-10T05:18:14.584Z,1508
2016-08-10T05:19:13.855Z,1496
2016-08-10T05:20:14.523Z,1476
2016-08-10T05:21:14.488Z,1488
2016-08-10T05:22:14.461Z,1520
2016-08-10T05:23:14.423Z,1540
2016-08-10T05:24:14.395Z,1576
2016-08-10T05:25:13.682Z,1692
2016-08-10T05:26:12.928Z,1836
2016-08-10T05:27:13.601Z,1980
2016-08-10T05:28:14.256Z,2060
2016-08-10T05:29:13.527Z,2128
2016-08-10T05:30:13.495Z,2124
2016-08-10T05:31:14.159Z,2088
2016-08-10T05:32:13.433Z,2032
2016-08-10T05:33:14.105Z,1952
2016-08-10T05:34:14.060Z,1820
2016-08-10T05:35:14.030Z,1752
2016-08-10T05:36:13.996Z,1732
2016-08-10T05:37:13.267Z,1684
2016-08-10T05:38:13.968Z,1644
2016-08-10T05:39:13.209Z,1664
2016-08-10T05:40:13.178Z,1712
2016-08-10T05:41:13.836Z,1732
2016-08-10T05:42:13.938Z,1784
2016-08-10T05:43:13.769Z,1836
2016-08-10T05:44:13.735Z,1840
2016-08-10T05:45:13.706Z,1824
2016-08-10T05:46:13.669Z,1828
2016-08-10T05:47:13.638Z,1848
2016-08-10T05:48:12.906Z,1936
2016-08-10T05:49:12.874Z,2076
2016-08-10T05:50:13.540Z,2256
2016-08-10T05:51:13.511Z,2520
2016-08-10T05:52:13.474Z,2696
2016-08-10T05:53:12.746Z,2936
2016-08-10T05:54:13.419Z,3216
2016-08-10T05:55:12.680Z,3348
2016-08-10T05:56:13.346Z,3536
2016-08-10T05:57:13.314Z,3820
2016-08-10T05:58:11.891Z,4136
2016-08-10T05:59:12.552Z,4240
2016-08-10T06:00:13.226Z,4424
2016-08-10T06:01:13.191Z,4504
2016-08-10T06:02:13.181Z,4664
2016-08-10T06:03:12.418Z,4780
2016-08-10T06:04:12.391Z,4872
2016-08-10T06:05:12.355Z,4944
2016-08-10T06:06:13.030Z,5072
2016-08-10T06:07:12.993Z,5144
2016-08-10T06:08:12.965Z,5148
2016-08-10T06:09:12.232Z,4804
2016-08-10T06:10:12.902Z,4488
2016-08-10T06:11:12.160Z,4096
2016-08-10T06:12:12.830Z,3992
2016-08-10T06:13:12.804Z,4060
2016-08-10T06:14:12.768Z,4076
2016-08-10T06:15:12.735Z,3988
2016-08-10T06:16:12.705Z,3808
2016-08-10T06:17:12.683Z,3792
2016-08-10T06:19:11.914Z,4088
2016-08-10T06:20:11.879Z,4432
2016-08-10T06:21:11.843Z,4816
2016-08-10T06:22:10.426Z,5292
2016-08-10T06:23:11.089Z,6100
2016-08-10T06:24:11.063Z,6720
2016-08-10T06:25:11.022Z,6852
2016-08-10T06:26:11.686Z,6696
2016-08-10T06:27:11.676Z,6624
2016-08-10T06:28:11.626Z,6476
2016-08-10T06:29:12.294Z,6340
2016-08-10T06:30:12.264Z,5956
2016-08-10T06:31:11.531Z,5876
2016-08-10T06:32:10.809Z,5896
2016-08-10T06:33:12.164Z,5916
2016-08-10T06:34:11.439Z,6192
2016-08-10T06:35:11.421Z,6400
2016-08-10T06:36:12.069Z,6484
2016-08-10T06:37:12.041Z,6604
2016-08-10T06:38:12.008Z,6628
2016-08-10T06:40:11.946Z,6884
2016-08-10T06:41:11.235Z,6768
2016-08-10T06:42:10.488Z,6856
2016-08-10T06:43:11.153Z,7084
2016-08-10T06:44:11.121Z,7244
2016-08-10T06:45:11.092Z,7680
2016-08-10T06:46:11.762Z,7896
2016-08-10T06:47:09.637Z,7952
2016-08-10T06:48:11.706Z,7432
2016-08-10T06:49:10.969Z,6616
2016-08-10T06:50:11.641Z,6124
2016-08-10T06:51:11.607Z,5804
2016-08-10T06:52:11.581Z,5536
2016-08-10T06:53:11.541Z,5228
2016-08-10T06:54:11.508Z,5088
2016-08-10T06:55:10.779Z,5056
2016-08-10T06:56:10.763Z,5172
2016-08-10T06:57:11.412Z,5388
2016-08-10T06:58:10.696Z,5740
2016-08-10T06:59:10.658Z,6076
2016-08-10T07:00:11.325Z,6316
2016-08-10T07:01:10.592Z,6608
2016-08-10T07:02:11.264Z,6672
2016-08-10T07:03:10.550Z,6652
2016-08-10T07:04:11.204Z,6580
2016-08-10T07:05:11.171Z,6252
2016-08-10T07:06:11.135Z,5736
2016-08-10T07:07:11.104Z,5240
2016-08-10T07:08:10.378Z,4464
2016-08-10T07:09:11.045Z,4072
2016-08-10T07:10:11.015Z,3888
2016-08-10T07:11:11.001Z,3740
2016-08-10T07:12:10.256Z,3740
2016-08-10T07:13:09.529Z,3888
2016-08-10T07:14:10.192Z,4228
2016-08-10T07:15:10.183Z,4604
2016-08-10T07:16:09.440Z,5132
2016-08-10T07:17:10.875Z,6028
2016-08-10T07:18:10.770Z,7308
2016-08-10T07:19:10.732Z,8244
2016-08-10T07:20:09.327Z,8976
2016-08-10T07:21:10.676Z,9080
2016-08-10T07:22:10.643Z,8416
2016-08-10T07:23:09.920Z,7824
2016-08-10T07:24:10.585Z,7596
2016-08-10T07:25:10.559Z,7288
2016-08-10T07:26:09.827Z,7452
2016-08-10T07:27:09.805Z,7804
2016-08-10T07:28:10.460Z,8048
2016-08-10T07:29:09.038Z,8492
2016-08-10T07:30:10.667Z,8956
2016-08-10T07:31:10.368Z,9724
2016-08-10T07:32:10.339Z,10560
2016-08-10T07:33:10.303Z,10688
2016-08-10T07:34:10.277Z,10292
2016-08-10T07:35:10.249Z,10108
2016-08-10T07:36:09.519Z,10020
2016-08-10T07:37:09.484Z,10184
2016-08-10T07:38:10.151Z,10304
2016-08-10T07:39:10.133Z,9356
2016-08-10T07:40:09.398Z,9260
2016-08-10T07:41:09.368Z,9596
2016-08-10T07:42:10.034Z,9956
2016-08-10T07:43:09.304Z,10328
2016-08-10T07:44:09.277Z,10684
2016-08-10T07:45:09.251Z,11100
2016-08-10T07:46:09.917Z,11224
2016-08-10T07:47:09.193Z,11824
2016-08-10T07:48:09.156Z,12280
2016-08-10T07:49:09.125Z,12128
2016-08-10T07:50:08.406Z,11788
2016-08-10T07:51:09.771Z,11344
2016-08-10T07:52:09.037Z,10204
2016-08-10T07:53:08.314Z,9448
2016-08-10T07:54:08.283Z,8696
2016-08-10T07:55:09.642Z,8240
2016-08-10T07:56:08.910Z,7828
2016-08-10T07:57:08.192Z,7548
2016-08-10T07:58:09.547Z,7256
2016-08-10T07:59:08.832Z,7204
2016-08-10T08:00:08.791Z,7120
2016-08-10T08:01:09.458Z,6836
2016-08-10T08:02:08.730Z,6376
2016-08-10T08:03:08.699Z,6084
2016-08-10T08:04:09.368Z,6180
2016-08-10T08:05:09.341Z,6652
2016-08-10T08:06:09.316Z,6532
2016-08-10T08:07:09.277Z,5868
2016-08-10T08:08:09.248Z,5392
2016-08-10T08:09:08.523Z,5064
2016-08-10T08:10:08.498Z,5100
2016-08-10T08:11:09.168Z,5420
2016-08-10T08:12:09.128Z,5852
2016-08-10T08:13:09.099Z,6504
2016-08-10T08:14:08.365Z,7420
2016-08-10T08:15:09.040Z,8332
2016-08-10T08:16:08.314Z,8852
2016-08-10T08:17:07.579Z,9012
2016-08-10T08:18:08.254Z,9044
2016-08-10T08:19:07.526Z,9452
2016-08-10T08:20:08.884Z,10496
2016-08-10T08:21:08.159Z,12160
2016-08-10T08:22:07.450Z,14224
2016-08-10T08:23:08.796Z,16328
2016-08-10T08:24:08.072Z,18560
2016-08-10T08:25:08.739Z,20960
2016-08-10T08:26:08.031Z,28608
2016-08-10T08:27:08.676Z,35552
2016-08-10T08:28:08.653Z,30368
2016-08-10T08:29:07.917Z,61088
2016-08-10T08:30:07.191Z,61536
2016-08-10T08:31:08.561Z,45760
2016-08-10T08:32:08.530Z,70144
2016-08-10T08:33:07.108Z,66592
2016-08-10T08:34:08.467Z,48544
2016-08-10T08:35:07.752Z,49216
2016-08-10T08:36:08.422Z,46912
2016-08-10T08:37:07.697Z,44736
2016-08-10T08:38:08.372Z,42880
2016-08-10T08:39:08.332Z,43680
2016-08-10T08:40:07.616Z,44480
2016-08-10T08:41:06.896Z,39616
2016-08-10T08:42:08.270Z,36768
2016-08-10T08:43:07.557Z,32384
2016-08-10T08:44:08.213Z,31104
2016-08-10T08:45:08.204Z,31104
2016-08-10T08:46:07.493Z,30848
2016-08-10T08:47:08.140Z,33504
2016-08-10T08:48:08.131Z,38304
2016-08-10T08:49:08.101Z,50976
2016-08-10T08:50:08.076Z,38976
2016-08-10T08:51:08.052Z,49952
2016-08-10T08:52:07.336Z,37696
2016-08-10T08:53:08.008Z,30336
2016-08-10T08:54:07.289Z,24704
2016-08-10T08:55:07.271Z,18272
2016-08-10T08:56:07.245Z,13676
2016-08-10T08:57:06.525Z,10924
2016-08-10T08:58:07.896Z,8960
2016-08-10T08:59:07.885Z,7904
2016-08-10T09:00:07.851Z,7332
2016-08-10T09:01:07.131Z,7056
2016-08-10T09:02:07.113Z,6796
2016-08-10T09:03:07.087Z,6508
2016-08-10T09:04:06.368Z,6360
2016-08-10T09:05:06.348Z,6300
2016-08-10T09:06:07.722Z,6320
2016-08-10T09:07:07.683Z,6344
2016-08-10T09:08:07.670Z,6392
2016-08-10T09:09:06.245Z,6416
2016-08-10T09:10:07.615Z,6452
2016-08-10T09:11:07.586Z,6448
2016-08-10T09:12:06.870Z,6532
2016-08-10T09:13:06.839Z,6736
2016-08-10T09:14:07.510Z,6984
2016-08-10T09:15:07.504Z,7268
2016-08-10T09:16:05.369Z,7536
2016-08-10T09:17:07.435Z,7780
2016-08-10T09:18:07.407Z,7992
2016-08-10T09:19:07.379Z,8196
2016-08-10T09:20:05.958Z,8364
2016-08-10T09:21:05.234Z,8336
2016-08-10T09:22:05.905Z,8236
2016-08-10T09:23:06.574Z,8192
2016-08-10T09:24:06.550Z,8220
2016-08-10T09:25:07.223Z,8528
2016-08-10T09:26:06.502Z,9736
2016-08-10T09:27:07.171Z,11980
2016-08-10T09:28:07.135Z,14000
2016-08-10T09:29:06.412Z,15312
2016-08-10T09:30:06.380Z,15696
2016-08-10T09:31:07.065Z,17632
2016-08-10T09:32:06.322Z,18720
2016-08-10T09:33:07.010Z,18656
2016-08-10T09:34:06.266Z,16004
2016-08-10T09:35:06.939Z,13184
2016-08-10T09:36:06.917Z,11056
2016-08-10T09:37:06.882Z,9524
2016-08-10T09:38:04.765Z,8312
2016-08-10T09:39:06.133Z,7448
2016-08-10T09:40:06.811Z,6744
2016-08-10T09:41:06.776Z,6760
2016-08-10T09:42:06.053Z,7008
2016-08-10T09:43:06.020Z,7216
2016-08-10T09:44:06.690Z,7776
2016-08-10T09:45:05.965Z,8472
2016-08-10T09:46:05.931Z,9356
2016-08-10T09:47:05.908Z,10332
2016-08-10T09:48:06.610Z,11172
2016-08-10T09:49:06.551Z,12068
2016-08-10T09:50:06.527Z,13148
2016-08-10T09:51:05.794Z,14700
2016-08-10T09:52:05.763Z,14588
2016-08-10T09:53:05.741Z,14976
2016-08-10T09:54:06.428Z,15504
2016-08-10T09:55:06.379Z,14980
2016-08-10T09:56:06.343Z,14516
2016-08-10T09:57:06.334Z,14184
2016-08-10T09:58:05.608Z,14036
2016-08-10T09:59:04.194Z,14344
2016-08-10T10:00:06.236Z,15192
2016-08-10T10:01:06.209Z,14960
2016-08-10T10:02:06.178Z,14012
2016-08-10T10:03:06.151Z,13220
2016-08-10T10:04:05.422Z,12856
2016-08-10T10:05:06.116Z,12584
2016-08-10T10:06:05.365Z,12880
2016-08-10T10:07:05.341Z,12764
2016-08-10T10:08:04.606Z,12448
2016-08-10T10:09:05.971Z,12196
2016-08-10T10:10:05.952Z,11824
2016-08-10T10:11:05.225Z,11536
2016-08-10T10:12:05.190Z,11728
2016-08-10T10:13:05.167Z,11840
2016-08-10T10:14:05.834Z,11588
2016-08-10T10:15:05.116Z,11256
2016-08-10T10:16:05.078Z,11292
2016-08-10T10:17:04.351Z,11672
2016-08-10T10:18:05.711Z,12960
2016-08-10T10:19:05.690Z,14244
2016-08-10T10:20:05.651Z,14760
2016-08-10T10:21:05.626Z,13868
2016-08-10T10:22:05.598Z,12564
2016-08-10T10:23:05.571Z,12408
2016-08-10T10:24:04.847Z,12044
2016-08-10T10:25:05.046Z,11684
2016-08-10T10:26:04.784Z,11648
2016-08-10T10:27:04.056Z,11924
2016-08-10T10:28:05.425Z,12296
2016-08-10T10:29:04.700Z,12828
2016-08-10T10:30:05.368Z,13260
2016-08-10T10:31:04.641Z,13012
2016-08-10T10:32:05.304Z,13024
2016-08-10T10:33:05.270Z,14268
2016-08-10T10:34:05.241Z,15440
2016-08-10T10:35:05.221Z,15416
2016-08-10T10:36:05.188Z,15508
2016-08-10T10:37:05.173Z,16492
2016-08-10T10:38:05.127Z,17312
2016-08-10T10:39:05.114Z,17216
2016-08-10T10:40:03.674Z,16680
2016-08-10T10:41:05.036Z,15716
2016-08-10T10:42:04.306Z,15012
2016-08-10T10:43:04.978Z,13780
2016-08-10T10:44:04.940Z,12848
2016-08-10T10:45:04.216Z,11908
2016-08-10T10:46:04.188Z,12524
2016-08-10T10:47:04.858Z,17184
2016-08-10T10:48:04.126Z,18016
2016-08-10T10:49:04.107Z,12144
2016-08-10T10:50:04.067Z,10632
2016-08-10T10:51:04.735Z,11144
2016-08-10T10:52:04.010Z,10420
2016-08-10T10:53:03.982Z,9772
2016-08-10T10:54:03.954Z,9076
2016-08-10T10:56:03.891Z,8748
2016-08-10T10:57:03.877Z,8464
2016-08-10T10:58:03.825Z,8616
2016-08-10T10:59:03.801Z,10016
2016-08-10T11:00:04.474Z,13224
2016-08-10T11:01:03.042Z,26560
2016-08-10T11:02:03.710Z,19168
2016-08-10T11:03:04.377Z,16460
2016-08-10T11:04:04.354Z,16428
2016-08-10T11:05:03.641Z,16960
2016-08-10T11:06:04.285Z,16928
2016-08-10T11:07:03.563Z,14180
2016-08-10T11:08:03.528Z,9992
2016-08-10T11:09:04.208Z,7636
2016-08-10T11:11:04.135Z,4792
2016-08-10T11:12:04.108Z,4236
2016-08-10T11:13:02.688Z,3964
2016-08-10T11:14:04.043Z,3876
2016-08-10T11:15:03.323Z,4000
2016-08-10T11:16:03.980Z,4308
2016-08-10T11:17:03.254Z,4468
2016-08-10T11:18:02.538Z,4764
2016-08-10T11:19:03.905Z,5028
2016-08-10T11:20:03.859Z,5088
2016-08-10T11:21:03.836Z,4980
2016-08-10T11:22:03.109Z,4472
2016-08-10T11:23:03.073Z,3652
2016-08-10T11:24:03.040Z,3228
2016-08-10T11:26:03.678Z,2964
2016-08-10T11:27:02.952Z,3336
2016-08-10T11:28:03.615Z,3636
2016-08-10T11:29:02.191Z,3716
2016-08-10T11:30:03.547Z,3656
2016-08-10T11:31:02.128Z,3684
2016-08-10T11:32:03.493Z,3688
2016-08-10T11:33:03.459Z,3580
2016-08-10T11:34:03.428Z,3360
2016-08-10T11:35:02.694Z,3060
2016-08-10T11:36:03.358Z,2904
2016-08-10T11:37:02.630Z,2996
2016-08-10T11:38:03.299Z,3360
2016-08-10T11:39:03.263Z,4280
2016-08-10T11:40:01.137Z,5312
2016-08-10T11:41:02.514Z,5804
2016-08-10T11:42:03.166Z,5544
2016-08-10T11:43:03.166Z,5444
2016-08-10T11:44:03.100Z,5452
2016-08-10T11:45:02.382Z,5644
2016-08-10T11:46:03.031Z,6072
2016-08-10T11:47:01.612Z,6216
2016-08-10T11:48:02.967Z,5844
2016-08-10T11:49:02.938Z,5332
2016-08-10T11:50:02.203Z,4876
2016-08-10T11:51:01.479Z,4468
2016-08-10T11:52:02.138Z,3904
2016-08-10T11:53:02.797Z,3616
2016-08-10T11:54:02.769Z,3372
2016-08-10T11:55:02.044Z,3168
2016-08-10T11:56:02.705Z,3016
2016-08-10T11:57:01.976Z,2904
2016-08-10T11:58:02.639Z,2848
2016-08-10T11:59:02.603Z,2760
2016-08-10T12:00:00.485Z,2756
2016-08-10T12:01:01.842Z,2788
2016-08-10T12:02:02.512Z,2944
2016-08-10T12:03:02.471Z,3224
2016-08-10T12:04:02.439Z,3468
2016-08-10T12:05:01.707Z,3700
2016-08-10T12:06:01.676Z,4032
2016-08-10T12:07:02.338Z,4484
2016-08-10T12:08:02.303Z,4980
2016-08-10T12:09:02.268Z,5408
2016-08-10T12:10:02.238Z,5752
2016-08-10T12:11:01.501Z,6060
2016-08-10T12:12:02.172Z,6340
2016-08-10T12:13:01.438Z,6620
2016-08-10T12:14:02.107Z,6796
2016-08-10T12:15:02.067Z,7032
2016-08-10T12:16:02.036Z,7096
2016-08-10T12:17:00.619Z,7252
2016-08-10T12:18:01.971Z,7476
2016-08-10T12:19:01.962Z,7596
2016-08-10T12:20:00.518Z,7612
2016-08-10T12:21:01.183Z,7656
2016-08-10T12:22:01.140Z,7664
2016-08-10T12:23:01.801Z,7648
2016-08-10T12:24:01.074Z,7464
2016-08-10T12:25:01.736Z,7136
2016-08-10T12:26:01.719Z,6888
2016-08-10T12:27:00.977Z,6896
2016-08-10T12:28:00.947Z,7080
2016-08-10T12:29:01.608Z,7408
2016-08-10T12:30:00.876Z,7816
2016-08-10T12:31:00.843Z,8140
2016-08-10T12:32:01.511Z,8140
2016-08-10T12:33:01.475Z,8012
2016-08-10T12:34:01.453Z,7984
2016-08-10T12:35:01.405Z,8048
2016-08-10T12:36:00.670Z,8200
2016-08-10T12:36:59.949Z,8552
2016-08-10T12:38:01.308Z,8956
2016-08-10T12:38:59.186Z,9280
2016-08-10T12:40:00.554Z,9444
2016-08-10T12:41:01.222Z,9360
2016-08-10T12:42:01.173Z,9140
2016-08-10T12:42:59.757Z,8984
2016-08-10T12:44:00.421Z,8744
2016-08-10T12:45:01.086Z,8512
2016-08-10T12:46:01.054Z,8308
2016-08-10T12:47:00.318Z,8156
2016-08-10T12:48:00.296Z,8020
2016-08-10T12:48:59.550Z,7784
2016-08-10T12:50:00.216Z,7412
2016-08-10T12:51:00.882Z,6976
2016-08-10T12:52:00.154Z,6600
2016-08-10T12:53:00.816Z,6080
2016-08-10T12:54:00.782Z,5492
2016-08-10T12:55:00.055Z,4984
2016-08-10T12:56:00.025Z,4500
2016-08-10T12:56:59.992Z,4092
2016-08-10T12:57:59.953Z,3872
2016-08-10T12:59:00.622Z,3788
2016-08-10T12:59:59.888Z,3776
2016-08-10T13:01:00.551Z,3812
2016-08-10T13:02:00.527Z,4004
2016-08-10T13:02:59.794Z,4236
2016-08-10T13:04:00.465Z,4400
2016-08-10T13:05:00.428Z,4548
2016-08-10T13:05:59.690Z,4676
2016-08-10T13:06:59.664Z,4716
2016-08-10T13:08:00.324Z,4740
2016-08-10T13:08:59.603Z,4672
2016-08-10T13:10:00.265Z,4668
2016-08-10T13:10:59.528Z,4812
2016-08-10T13:12:00.196Z,5016
2016-08-10T13:12:59.478Z,5308
2016-08-10T13:14:00.131Z,5784
2016-08-10T13:15:00.095Z,6420
2016-08-10T13:16:00.063Z,7112
2016-08-10T13:17:00.025Z,7544
2016-08-10T13:17:59.992Z,7808
2016-08-10T13:18:59.963Z,7868
2016-08-10T13:19:59.242Z,7960
2016-08-10T13:20:59.900Z,7900
2016-08-10T13:21:59.877Z,7924
2016-08-10T13:22:59.835Z,7924
2016-08-10T13:23:59.116Z,7944
2016-08-10T13:24:59.082Z,8152
2016-08-10T13:25:59.740Z,8692
2016-08-10T13:26:59.004Z,9692
2016-08-10T13:27:58.977Z,11444
2016-08-10T13:28:59.637Z,13072
2016-08-10T13:29:58.921Z,14512
2016-08-10T13:30:57.484Z,14444
2016-08-10T13:31:58.846Z,13452
2016-08-10T13:32:58.816Z,11608
2016-08-10T13:33:58.777Z,9640
2016-08-10T13:34:59.450Z,8460
2016-08-10T13:35:59.407Z,8640
2016-08-10T13:36:59.378Z,9284
2016-08-10T13:37:57.953Z,9524
2016-08-10T13:38:57.941Z,8936
2016-08-10T13:39:59.286Z,8124
2016-08-10T13:40:58.555Z,7268
2016-08-10T13:41:59.218Z,6888
2016-08-10T13:42:58.497Z,6404
2016-08-10T13:43:57.764Z,6332
2016-08-10T13:44:59.125Z,6412
2016-08-10T13:45:58.400Z,6140
2016-08-10T13:46:59.059Z,6436
2016-08-10T13:47:58.334Z,7244
2016-08-10T13:48:58.299Z,8232